createdAt,value
2019-04-30T00:00:45.936Z,1013.22
2019-04-30T00:01:48.388Z,1013.21
2019-04-30T00:02:45.966Z,1013.19
2019-04-30T00:03:46.248Z,1013.18
2019-04-30T00:04:45.999Z,1013.16
2019-04-30T00:05:49.233Z,1013.16
2019-04-30T00:06:46.035Z,1013.17
2019-04-30T00:07:46.229Z,1013.17
2019-04-30T00:08:46.067Z,1013.1
2019-04-30T00:09:49.176Z,1013.06
2019-04-30T00:11:46.218Z,1013.04
2019-04-30T00:12:46.135Z,1013.05
2019-04-30T00:13:50.143Z,1013.02
2019-04-30T00:14:46.170Z,1012.99
2019-04-30T00:15:47.852Z,1012.99
2019-04-30T00:16:46.203Z,1012.95
2019-04-30T00:17:50.087Z,1012.94
2019-04-30T00:18:55.474Z,1012.96
2019-04-30T00:19:50.365Z,1012.93
2019-04-30T00:20:47.044Z,1012.95
2019-04-30T00:21:48.164Z,1012.91
2019-04-30T00:22:50.189Z,1012.9
2019-04-30T00:23:46.321Z,1012.94
2019-04-30T00:24:49.652Z,1012.91
2019-04-30T00:25:46.384Z,1012.91
2019-04-30T00:27:48.075Z,1012.92
2019-04-30T00:28:47.825Z,1012.9
2019-04-30T00:29:46.422Z,1012.89
2019-04-30T00:30:47.783Z,1012.87
2019-04-30T00:31:47.098Z,1012.82
2019-04-30T00:32:47.195Z,1012.84
2019-04-30T00:33:46.490Z,1012.8
2019-04-30T00:34:46.505Z,1012.84
2019-04-30T00:35:49.687Z,1012.81
2019-04-30T00:36:46.540Z,1012.81
2019-04-30T00:37:51.649Z,1012.8
2019-04-30T00:38:46.576Z,1012.81
2019-04-30T00:39:50.820Z,1012.81
2019-04-30T00:40:46.607Z,1012.83
2019-04-30T00:41:47.534Z,1012.78
2019-04-30T00:43:49.687Z,1012.85
2019-04-30T00:44:46.674Z,1012.84
2019-04-30T00:45:47.526Z,1012.83
2019-04-30T00:46:47.958Z,1012.8
2019-04-30T00:47:47.949Z,1012.78
2019-04-30T00:48:46.739Z,1012.77
2019-04-30T00:49:47.214Z,1012.77
2019-04-30T00:50:46.773Z,1012.79
2019-04-30T00:51:49.740Z,1012.82
2019-04-30T00:52:46.807Z,1012.77
2019-04-30T00:53:51.087Z,1012.79
2019-04-30T00:54:46.839Z,1012.79
2019-04-30T00:55:48.481Z,1012.77
2019-04-30T00:56:46.873Z,1012.76
2019-04-30T00:58:46.907Z,1012.75
2019-04-30T00:59:48.020Z,1012.75
2019-04-30T01:00:46.940Z,1012.75
2019-04-30T01:01:48.065Z,1012.73
2019-04-30T01:02:46.973Z,1012.79
2019-04-30T01:03:49.536Z,1012.76
2019-04-30T01:04:47.006Z,1012.72
2019-04-30T01:05:47.963Z,1012.75
2019-04-30T01:06:47.042Z,1012.75
2019-04-30T01:07:50.158Z,1012.75
2019-04-30T01:08:47.072Z,1012.7
2019-04-30T01:09:49.669Z,1012.71
2019-04-30T01:10:47.106Z,1012.73
2019-04-30T01:11:48.121Z,1012.72
2019-04-30T01:12:50.094Z,1012.75
2019-04-30T01:13:50.904Z,1012.74
2019-04-30T01:14:47.171Z,1012.74
2019-04-30T01:15:48.876Z,1012.75
2019-04-30T01:16:49.225Z,1012.74
2019-04-30T01:17:50.855Z,1012.71
2019-04-30T01:18:48.768Z,1012.73
2019-04-30T01:19:50.981Z,1012.73
2019-04-30T01:20:48.711Z,1012.72
2019-04-30T01:21:48.896Z,1012.79
2019-04-30T01:22:48.655Z,1012.74
2019-04-30T01:23:48.908Z,1012.73
2019-04-30T01:24:49.510Z,1012.71
2019-04-30T01:25:51.100Z,1012.72
2019-04-30T01:26:48.551Z,1012.68
2019-04-30T01:27:48.981Z,1012.66
2019-04-30T01:28:49.362Z,1012.69
2019-04-30T01:30:49.415Z,1012.66
2019-04-30T01:31:48.782Z,1012.69
2019-04-30T01:32:50.169Z,1012.67
2019-04-30T01:33:48.894Z,1012.67
2019-04-30T01:34:49.659Z,1012.67
2019-04-30T01:35:48.756Z,1012.66
2019-04-30T01:36:51.945Z,1012.64
2019-04-30T01:37:48.742Z,1012.67
2019-04-30T01:38:48.942Z,1012.68
2019-04-30T01:39:49.153Z,1012.7
2019-04-30T01:40:51.004Z,1012.73
2019-04-30T01:41:48.762Z,1012.68
2019-04-30T01:42:50.716Z,1012.72
2019-04-30T01:43:48.705Z,1012.69
2019-04-30T01:44:50.933Z,1012.69
2019-04-30T01:46:51.413Z,1012.7
2019-04-30T01:47:49.564Z,1012.67
2019-04-30T01:48:51.664Z,1012.71
2019-04-30T01:49:49.434Z,1012.67
2019-04-30T01:50:48.812Z,1012.71
2019-04-30T01:51:48.632Z,1012.68
2019-04-30T01:52:49.302Z,1012.7
2019-04-30T01:53:48.438Z,1012.66
2019-04-30T01:54:48.996Z,1012.7
2019-04-30T01:55:49.437Z,1012.7
2019-04-30T01:56:49.800Z,1012.72
2019-04-30T01:57:49.117Z,1012.63
2019-04-30T01:58:49.457Z,1012.64
2019-04-30T01:59:48.624Z,1012.65
2019-04-30T02:00:49.290Z,1012.63
2019-04-30T02:02:49.511Z,1012.65
2019-04-30T02:03:48.679Z,1012.68
2019-04-30T02:04:49.188Z,1012.68
2019-04-30T02:05:49.706Z,1012.72
2019-04-30T02:06:49.292Z,1012.74
2019-04-30T02:07:48.645Z,1012.7
2019-04-30T02:08:49.355Z,1012.67
2019-04-30T02:09:48.891Z,1012.68
2019-04-30T02:10:49.111Z,1012.66
2019-04-30T02:11:48.786Z,1012.67
2019-04-30T02:12:49.305Z,1012.69
2019-04-30T02:13:49.136Z,1012.65
2019-04-30T02:14:49.425Z,1012.71
2019-04-30T02:15:49.189Z,1012.69
2019-04-30T02:16:49.404Z,1012.72
2019-04-30T02:18:49.426Z,1012.72
2019-04-30T02:19:54.675Z,1012.72
2019-04-30T02:20:49.638Z,1012.74
2019-04-30T02:21:48.768Z,1012.78
2019-04-30T02:22:48.660Z,1012.76
2019-04-30T02:23:49.274Z,1012.78
2019-04-30T02:24:48.731Z,1012.77
2019-04-30T02:25:48.933Z,1012.77
2019-04-30T02:26:48.532Z,1012.77
2019-04-30T02:27:48.894Z,1012.71
2019-04-30T02:28:49.488Z,1012.75
2019-04-30T02:29:49.477Z,1012.73
2019-04-30T02:30:50.332Z,1012.72
2019-04-30T02:31:50.313Z,1012.69
2019-04-30T02:33:50.208Z,1012.7
2019-04-30T02:34:49.749Z,1012.72
2019-04-30T02:35:50.080Z,1012.75
2019-04-30T02:36:49.896Z,1012.78
2019-04-30T02:37:50.535Z,1012.77
2019-04-30T02:38:49.356Z,1012.78
2019-04-30T02:39:50.271Z,1012.73
2019-04-30T02:40:49.758Z,1012.8
2019-04-30T02:41:50.571Z,1012.83
2019-04-30T02:42:49.731Z,1012.77
2019-04-30T02:43:49.688Z,1012.77
2019-04-30T02:44:50.335Z,1012.77
2019-04-30T02:45:49.733Z,1012.75
2019-04-30T02:46:50.409Z,1012.72
2019-04-30T02:47:49.965Z,1012.77
2019-04-30T02:48:50.397Z,1012.77
2019-04-30T02:49:49.970Z,1012.76
2019-04-30T02:50:49.189Z,1012.74
2019-04-30T02:51:49.899Z,1012.72
2019-04-30T02:52:50.399Z,1012.77
2019-04-30T02:53:50.441Z,1012.78
2019-04-30T02:54:49.887Z,1012.78
2019-04-30T02:55:49.914Z,1012.78
2019-04-30T02:56:50.649Z,1012.83
2019-04-30T02:57:49.843Z,1012.82
2019-04-30T02:58:50.444Z,1012.83
2019-04-30T02:59:49.660Z,1012.82
2019-04-30T03:00:49.547Z,1012.81
2019-04-30T03:01:50.111Z,1012.81
2019-04-30T03:02:50.469Z,1012.8
2019-04-30T03:03:50.001Z,1012.81
2019-04-30T03:05:49.700Z,1012.8
2019-04-30T03:06:50.204Z,1012.83
2019-04-30T03:07:50.292Z,1012.83
2019-04-30T03:08:51.004Z,1012.84
2019-04-30T03:09:49.912Z,1012.9
2019-04-30T03:10:49.896Z,1012.9
2019-04-30T03:11:49.990Z,1012.89
2019-04-30T03:12:49.843Z,1012.87
2019-04-30T03:13:49.561Z,1012.84
2019-04-30T03:14:50.178Z,1012.88
2019-04-30T03:15:49.458Z,1012.89
2019-04-30T03:16:52.342Z,1012.9
2019-04-30T03:17:50.569Z,1012.84
2019-04-30T03:18:49.891Z,1012.92
2019-04-30T03:19:50.163Z,1012.93
2019-04-30T03:21:50.181Z,1012.95
2019-04-30T03:22:51.182Z,1012.95
2019-04-30T03:23:50.258Z,1012.9
2019-04-30T03:24:50.045Z,1012.89
2019-04-30T03:25:50.096Z,1012.89
2019-04-30T03:26:49.898Z,1012.92
2019-04-30T03:27:49.813Z,1012.9
2019-04-30T03:28:49.468Z,1012.94
2019-04-30T03:29:50.206Z,1012.91
2019-04-30T03:30:51.832Z,1012.96
2019-04-30T03:31:52.186Z,1012.91
2019-04-30T03:32:55.198Z,1012.94
2019-04-30T03:33:52.210Z,1012.94
2019-04-30T03:34:51.481Z,1013
2019-04-30T03:35:53.885Z,1012.97
2019-04-30T03:37:49.725Z,1012.97
2019-04-30T03:38:50.003Z,1012.96
2019-04-30T03:39:49.524Z,1012.93
2019-04-30T03:40:50.191Z,1012.97
2019-04-30T03:41:50.114Z,1012.98
2019-04-30T03:42:49.577Z,1012.97
2019-04-30T03:43:50.258Z,1012.97
2019-04-30T03:44:49.849Z,1012.93
2019-04-30T03:45:49.979Z,1012.96
2019-04-30T03:46:49.971Z,1012.94
2019-04-30T03:47:50.397Z,1012.97
2019-04-30T03:48:50.317Z,1013
2019-04-30T03:49:50.039Z,1012.97
2019-04-30T03:50:56.259Z,1012.98
2019-04-30T03:51:50.036Z,1013
2019-04-30T03:53:50.195Z,1013.05
2019-04-30T03:54:49.750Z,1013.05
2019-04-30T03:55:50.505Z,1013.03
2019-04-30T03:56:50.274Z,1013.06
2019-04-30T03:57:51.850Z,1013.02
2019-04-30T03:58:50.287Z,1013.05
2019-04-30T03:59:50.091Z,1013.04
2019-04-30T04:00:50.275Z,1013.07
2019-04-30T04:01:50.009Z,1013.05
2019-04-30T04:02:50.306Z,1013.07
2019-04-30T04:03:49.927Z,1013.05
2019-04-30T04:04:52.512Z,1013.09
2019-04-30T04:05:49.969Z,1013.08
2019-04-30T04:06:49.930Z,1013.13
2019-04-30T04:08:49.960Z,1013.18
2019-04-30T04:09:50.093Z,1013.14
2019-04-30T04:10:52.698Z,1013.2
2019-04-30T04:11:50.768Z,1013.21
2019-04-30T04:12:50.039Z,1013.2
2019-04-30T04:13:50.054Z,1013.21
2019-04-30T04:14:50.882Z,1013.23
2019-04-30T04:15:50.108Z,1013.23
2019-04-30T04:16:50.721Z,1013.28
2019-04-30T04:17:50.487Z,1013.23
2019-04-30T04:18:50.288Z,1013.29
2019-04-30T04:19:50.135Z,1013.3
2019-04-30T04:20:52.118Z,1013.26
2019-04-30T04:21:50.889Z,1013.28
2019-04-30T04:22:50.179Z,1013.3
2019-04-30T04:23:50.196Z,1013.31
2019-04-30T04:24:50.693Z,1013.3
2019-04-30T04:25:50.227Z,1013.25
2019-04-30T04:26:50.491Z,1013.26
2019-04-30T04:27:50.997Z,1013.27
2019-04-30T04:28:50.274Z,1013.3
2019-04-30T04:29:51.198Z,1013.29
2019-04-30T04:30:50.867Z,1013.34
2019-04-30T04:31:50.509Z,1013.31
2019-04-30T04:32:50.370Z,1013.29
2019-04-30T04:33:52.647Z,1013.34
2019-04-30T04:34:50.910Z,1013.35
2019-04-30T04:35:50.385Z,1013.3
2019-04-30T04:36:50.872Z,1013.34
2019-04-30T04:37:50.416Z,1013.32
2019-04-30T04:38:50.865Z,1013.34
2019-04-30T04:40:50.524Z,1013.39
2019-04-30T04:41:50.654Z,1013.38
2019-04-30T04:42:50.495Z,1013.42
2019-04-30T04:43:50.683Z,1013.42
2019-04-30T04:44:50.627Z,1013.46
2019-04-30T04:45:50.544Z,1013.42
2019-04-30T04:46:50.831Z,1013.47
2019-04-30T04:47:50.719Z,1013.55
2019-04-30T04:48:50.592Z,1013.52
2019-04-30T04:49:53.706Z,1013.66
2019-04-30T04:50:50.624Z,1013.73
2019-04-30T04:51:50.641Z,1013.74
2019-04-30T04:52:50.659Z,1013.79
2019-04-30T04:53:50.676Z,1013.81
2019-04-30T04:54:51.125Z,1013.83
2019-04-30T04:56:53.390Z,1013.9
2019-04-30T04:57:50.755Z,1013.93
2019-04-30T04:58:50.778Z,1013.96
2019-04-30T04:59:50.794Z,1013.97
2019-04-30T05:00:50.816Z,1014.04
2019-04-30T05:01:50.836Z,1014.09
2019-04-30T05:02:50.857Z,1014.11
2019-04-30T05:03:50.879Z,1014.08
2019-04-30T05:04:50.902Z,1014.17
2019-04-30T05:05:50.923Z,1014.18
2019-04-30T05:06:50.948Z,1014.14
2019-04-30T05:07:50.969Z,1014.16
2019-04-30T05:08:50.991Z,1014.17
2019-04-30T05:09:51.016Z,1014.26
2019-04-30T05:10:51.039Z,1014.22
2019-04-30T05:12:51.175Z,1014.26
2019-04-30T05:13:51.110Z,1014.31
2019-04-30T05:14:51.135Z,1014.34
2019-04-30T05:15:51.502Z,1014.31
2019-04-30T05:16:51.183Z,1014.32
2019-04-30T05:17:51.208Z,1014.36
2019-04-30T05:18:51.233Z,1014.35
2019-04-30T05:19:51.264Z,1014.35
2019-04-30T05:20:51.282Z,1014.35
2019-04-30T05:21:51.659Z,1014.35
2019-04-30T05:22:51.331Z,1014.38
2019-04-30T05:23:51.457Z,1014.36
2019-04-30T05:24:51.383Z,1014.37
2019-04-30T05:25:51.413Z,1014.44
2019-04-30T05:26:51.433Z,1014.45
2019-04-30T05:28:52.930Z,1014.48
2019-04-30T05:29:51.511Z,1014.46
2019-04-30T05:30:51.537Z,1014.44
2019-04-30T05:31:51.563Z,1014.5
2019-04-30T05:32:51.590Z,1014.49
2019-04-30T05:33:51.619Z,1014.52
2019-04-30T05:34:51.643Z,1014.49
2019-04-30T05:35:51.671Z,1014.52
2019-04-30T05:36:51.697Z,1014.43
2019-04-30T05:37:51.723Z,1014.52
2019-04-30T05:38:51.750Z,1014.48
2019-04-30T05:39:51.779Z,1014.46
2019-04-30T05:40:51.805Z,1014.53
2019-04-30T05:41:51.834Z,1014.63
2019-04-30T05:43:51.890Z,1014.67
2019-04-30T05:44:51.916Z,1014.71
2019-04-30T05:45:51.944Z,1014.79
2019-04-30T05:46:51.971Z,1014.7
2019-04-30T05:47:51.999Z,1014.78
2019-04-30T05:48:52.026Z,1014.83
2019-04-30T05:49:52.054Z,1014.9
2019-04-30T05:50:52.082Z,1014.9
2019-04-30T05:51:54.983Z,1014.91
2019-04-30T05:52:52.137Z,1014.92
2019-04-30T05:53:52.165Z,1014.9
2019-04-30T05:54:52.194Z,1014.93
2019-04-30T05:55:52.221Z,1014.91
2019-04-30T05:56:52.250Z,1014.91
2019-04-30T05:57:56.313Z,1014.92
2019-04-30T05:58:52.306Z,1015.05
2019-04-30T05:59:52.333Z,1014.95
2019-04-30T06:00:52.361Z,1014.98
2019-04-30T06:01:52.390Z,1014.95
2019-04-30T06:02:52.417Z,1015.01
2019-04-30T06:03:52.446Z,1015.06
2019-04-30T06:04:52.475Z,1015.09
2019-04-30T06:05:52.505Z,1015.11
2019-04-30T06:06:52.531Z,1015.05
2019-04-30T06:07:52.559Z,1015.06
2019-04-30T06:08:52.589Z,1015.07
2019-04-30T06:09:52.617Z,1015.15
2019-04-30T06:10:52.646Z,1015.05
2019-04-30T06:11:52.674Z,1015.15
2019-04-30T06:12:52.702Z,1015.11
2019-04-30T06:13:52.730Z,1015.11
2019-04-30T06:15:52.789Z,1015.21
2019-04-30T06:16:52.818Z,1015.18
2019-04-30T06:18:00.201Z,1015.24
2019-04-30T06:18:52.875Z,1015.27
2019-04-30T06:19:52.905Z,1015.45
2019-04-30T06:20:52.935Z,1015.37
2019-04-30T06:22:04.543Z,1015.56
2019-04-30T06:22:52.994Z,1015.57
2019-04-30T06:23:53.022Z,1015.57
2019-04-30T06:24:53.053Z,1015.58
2019-04-30T06:25:59.129Z,1015.75
2019-04-30T06:26:53.112Z,1015.85
2019-04-30T06:27:53.141Z,1015.84
2019-04-30T06:28:53.170Z,1015.88
2019-04-30T06:29:53.200Z,1015.88
2019-04-30T06:31:53.262Z,1015.9
2019-04-30T06:32:53.290Z,1015.85
2019-04-30T06:33:53.320Z,1015.89
2019-04-30T06:34:53.352Z,1015.97
2019-04-30T06:35:53.380Z,1015.84
2019-04-30T06:36:54.194Z,1015.88
2019-04-30T06:37:53.440Z,1015.93
2019-04-30T06:38:53.470Z,1015.91
2019-04-30T06:39:53.500Z,1015.93
2019-04-30T06:40:53.530Z,1015.85
2019-04-30T06:42:04.119Z,1015.8
2019-04-30T06:42:53.592Z,1015.78
2019-04-30T06:43:53.621Z,1015.89
2019-04-30T06:44:53.651Z,1015.87
2019-04-30T06:45:53.682Z,1015.89
2019-04-30T06:47:53.742Z,1015.8
2019-04-30T06:48:53.772Z,1015.76
2019-04-30T06:49:53.803Z,1015.72
2019-04-30T06:50:53.836Z,1015.72
2019-04-30T06:51:53.863Z,1015.79
2019-04-30T06:52:58.606Z,1015.68
2019-04-30T06:53:53.925Z,1015.67
2019-04-30T06:54:53.954Z,1015.63
2019-04-30T06:55:53.988Z,1015.56
2019-04-30T06:56:54.016Z,1015.53
2019-04-30T06:57:54.048Z,1015.52
2019-04-30T06:58:54.076Z,1015.55
2019-04-30T06:59:54.107Z,1015.29
2019-04-30T07:00:54.140Z,1015
2019-04-30T07:01:54.167Z,1014.9
2019-04-30T07:03:56.739Z,1014.79
2019-04-30T07:04:54.260Z,1014.79
2019-04-30T07:05:54.291Z,1014.76
2019-04-30T07:06:54.321Z,1014.8
2019-04-30T07:08:00.725Z,1014.82
2019-04-30T07:08:55.800Z,1014.8
2019-04-30T07:09:58.177Z,1014.85
2019-04-30T07:10:57.110Z,1014.84
2019-04-30T07:11:54.550Z,1014.89
2019-04-30T07:12:54.506Z,1014.85
2019-04-30T07:13:54.546Z,1014.84
2019-04-30T07:14:54.568Z,1014.89
2019-04-30T07:15:54.601Z,1014.85
2019-04-30T07:16:54.630Z,1014.9
2019-04-30T07:18:54.691Z,1014.77
2019-04-30T07:19:56.834Z,1014.83
2019-04-30T07:20:54.752Z,1014.82
2019-04-30T07:21:54.803Z,1014.83
2019-04-30T07:23:00.694Z,1014.82
2019-04-30T07:23:54.844Z,1014.8
2019-04-30T07:24:54.913Z,1014.92
2019-04-30T07:25:54.906Z,1015.07
2019-04-30T07:26:59.626Z,1015.12
2019-04-30T07:27:54.966Z,1015.14
2019-04-30T07:28:55.489Z,1015.04
2019-04-30T07:29:55.027Z,1015.08
2019-04-30T07:31:55.087Z,1015
2019-04-30T07:32:55.117Z,1014.94
2019-04-30T07:33:55.154Z,1014.93
2019-04-30T07:34:55.176Z,1014.9
2019-04-30T07:35:55.207Z,1015
2019-04-30T07:37:10.659Z,1014.93
2019-04-30T07:39:54.763Z,1014.95
2019-04-30T07:40:54.793Z,1014.89
2019-04-30T07:41:54.823Z,1014.93
2019-04-30T07:42:54.852Z,1014.92
2019-04-30T07:43:54.882Z,1014.91
2019-04-30T07:44:54.912Z,1014.87
2019-04-30T07:45:54.942Z,1014.88
2019-04-30T07:46:55.025Z,1014.83
2019-04-30T07:47:55.002Z,1014.84
2019-04-30T07:48:55.031Z,1014.85
2019-04-30T07:49:55.991Z,1014.79
2019-04-30T07:50:55.089Z,1014.84
2019-04-30T07:51:55.885Z,1014.82
2019-04-30T07:53:02.379Z,1014.81
2019-04-30T07:53:55.178Z,1014.8
2019-04-30T07:54:55.209Z,1014.77
2019-04-30T07:55:55.256Z,1014.76
2019-04-30T07:56:55.270Z,1014.75
2019-04-30T07:57:55.298Z,1014.74
2019-04-30T07:58:55.329Z,1014.71
2019-04-30T07:59:55.358Z,1014.67
2019-04-30T08:00:56.099Z,1014.72
2019-04-30T08:03:11.260Z,1014.66
2019-04-30T08:04:10.991Z,1014.73
2019-04-30T08:05:11.017Z,1014.76
2019-04-30T08:06:11.152Z,1014.77
2019-04-30T08:07:11.126Z,1014.8
2019-04-30T08:08:20.745Z,1014.75
2019-04-30T08:09:11.140Z,1014.66
2019-04-30T08:10:11.167Z,1014.66
2019-04-30T08:11:22.908Z,1014.67
2019-04-30T08:12:13.577Z,1014.61
2019-04-30T08:14:11.287Z,1014.61
2019-04-30T08:15:11.326Z,1014.68
2019-04-30T08:16:11.346Z,1014.72
2019-04-30T08:17:11.376Z,1014.8
2019-04-30T08:18:11.405Z,1014.74
2019-04-30T08:19:11.435Z,1014.78
2019-04-30T08:20:11.465Z,1014.85
2019-04-30T08:21:11.496Z,1014.89
2019-04-30T08:22:11.525Z,1014.91
2019-04-30T08:23:17.007Z,1015.01
2019-04-30T08:24:11.585Z,1014.91
2019-04-30T08:25:11.615Z,1014.95
2019-04-30T08:26:11.644Z,1014.97
2019-04-30T08:27:11.674Z,1014.95
2019-04-30T08:28:11.703Z,1014.94
2019-04-30T08:30:21.228Z,1014.86
2019-04-30T08:31:11.792Z,1014.84
2019-04-30T08:32:11.822Z,1014.86
2019-04-30T08:33:11.851Z,1014.64
2019-04-30T08:34:11.886Z,1014.48
2019-04-30T08:35:11.910Z,1014.5
2019-04-30T08:36:11.940Z,1014.47
2019-04-30T08:37:16.815Z,1014.46
2019-04-30T08:38:11.998Z,1014.56
2019-04-30T08:39:12.028Z,1014.51
2019-04-30T08:40:12.067Z,1014.46
2019-04-30T08:41:12.087Z,1014.46
2019-04-30T08:42:12.116Z,1014.42
2019-04-30T08:43:12.145Z,1014.42
2019-04-30T08:44:12.174Z,1014.45
2019-04-30T08:46:12.233Z,1014.48
2019-04-30T08:47:12.268Z,1014.37
2019-04-30T08:48:12.291Z,1014.32
2019-04-30T08:49:12.595Z,1014.33
2019-04-30T08:50:12.510Z,1014.28
2019-04-30T08:51:13.750Z,1014.34
2019-04-30T08:52:12.466Z,1014.25
2019-04-30T08:53:12.534Z,1014.27
2019-04-30T08:54:12.549Z,1014.26
2019-04-30T08:55:16.297Z,1014.2
2019-04-30T08:56:12.522Z,1014.19
2019-04-30T08:57:12.552Z,1014.18
2019-04-30T08:58:15.159Z,1014.16
2019-04-30T08:59:12.610Z,1014.15
2019-04-30T09:01:12.667Z,1014.19
2019-04-30T09:02:16.158Z,1014.13
2019-04-30T09:03:12.748Z,1014.19
2019-04-30T09:04:12.753Z,1014.19
2019-04-30T09:05:12.782Z,1014.18
2019-04-30T09:06:12.809Z,1014.1
2019-04-30T09:07:12.839Z,1014.22
2019-04-30T09:08:12.868Z,1014.12
2019-04-30T09:09:12.895Z,1014.1
2019-04-30T09:10:12.924Z,1014.22
2019-04-30T09:11:22.359Z,1014.1
2019-04-30T09:12:12.981Z,1014.07
2019-04-30T09:13:13.009Z,1014.12
2019-04-30T09:14:13.038Z,1014.08
2019-04-30T09:15:13.066Z,1014.1
2019-04-30T09:16:13.094Z,1014.03
2019-04-30T09:17:13.124Z,1013.97
2019-04-30T09:18:13.149Z,1013.98
2019-04-30T09:19:13.178Z,1014.03
2019-04-30T09:20:13.205Z,1013.95
2019-04-30T09:21:13.233Z,1013.97
2019-04-30T09:22:15.268Z,1013.97
2019-04-30T09:23:13.291Z,1013.9
2019-04-30T09:24:13.317Z,1013.91
2019-04-30T09:25:13.346Z,1013.92
2019-04-30T09:26:13.373Z,1013.91
2019-04-30T09:27:13.401Z,1013.97
2019-04-30T09:28:13.427Z,1013.96
2019-04-30T09:29:13.455Z,1013.98
2019-04-30T09:30:13.483Z,1013.97
2019-04-30T09:31:13.510Z,1013.97
2019-04-30T09:33:13.565Z,1013.97
2019-04-30T09:34:16.924Z,1014.01
2019-04-30T09:35:13.620Z,1013.98
2019-04-30T09:36:13.648Z,1013.98
2019-04-30T09:37:13.675Z,1014
2019-04-30T09:38:13.703Z,1014
2019-04-30T09:39:13.730Z,1014
2019-04-30T09:40:17.746Z,1014.09
2019-04-30T09:41:13.785Z,1014
2019-04-30T09:42:13.812Z,1014.06
2019-04-30T09:43:13.846Z,1014.04
2019-04-30T09:44:13.867Z,1013.99
2019-04-30T09:45:13.894Z,1013.97
2019-04-30T09:46:19.102Z,1013.96
2019-04-30T09:47:13.949Z,1013.95
2019-04-30T09:49:14.009Z,1013.94
2019-04-30T09:50:14.030Z,1013.88
2019-04-30T09:51:14.375Z,1013.9
2019-04-30T09:52:14.223Z,1013.88
2019-04-30T09:53:14.120Z,1013.9
2019-04-30T09:54:14.471Z,1013.87
2019-04-30T09:55:14.166Z,1013.86
2019-04-30T09:56:14.194Z,1013.84
2019-04-30T09:57:14.223Z,1013.86
2019-04-30T09:58:17.564Z,1013.87
2019-04-30T09:59:14.275Z,1013.83
2019-04-30T10:00:14.303Z,1013.75
2019-04-30T10:01:14.330Z,1013.76
2019-04-30T10:02:14.357Z,1013.73
2019-04-30T10:03:14.994Z,1013.7
2019-04-30T10:05:15.734Z,1013.7
2019-04-30T10:06:14.464Z,1013.74
2019-04-30T10:07:14.491Z,1013.78
2019-04-30T10:08:14.518Z,1013.69
2019-04-30T10:09:14.545Z,1013.68
2019-04-30T10:10:14.573Z,1013.69
2019-04-30T10:11:14.600Z,1013.62
2019-04-30T10:12:14.625Z,1013.63
2019-04-30T10:13:14.652Z,1013.64
2019-04-30T10:14:14.679Z,1013.6
2019-04-30T10:15:14.707Z,1013.59
2019-04-30T10:16:14.732Z,1013.58
2019-04-30T10:17:14.758Z,1013.6
2019-04-30T10:18:14.786Z,1013.62
2019-04-30T10:19:15.072Z,1013.52
2019-04-30T10:21:14.865Z,1013.48
2019-04-30T10:22:14.892Z,1013.5
2019-04-30T10:23:14.917Z,1013.47
2019-04-30T10:24:15.667Z,1013.47
2019-04-30T10:25:14.971Z,1013.4
2019-04-30T10:26:14.997Z,1013.44
2019-04-30T10:27:15.023Z,1013.47
2019-04-30T10:28:15.052Z,1013.42
2019-04-30T10:29:15.104Z,1013.37
2019-04-30T10:30:15.102Z,1013.38
2019-04-30T10:31:15.129Z,1013.36
2019-04-30T10:32:15.157Z,1013.4
2019-04-30T10:33:15.184Z,1013.35
2019-04-30T10:34:15.209Z,1013.36
2019-04-30T10:36:15.262Z,1013.35
2019-04-30T10:37:15.287Z,1013.39
2019-04-30T10:38:15.313Z,1013.37
2019-04-30T10:39:15.354Z,1013.36
2019-04-30T10:40:15.367Z,1013.37
2019-04-30T10:41:15.405Z,1013.36
2019-04-30T10:42:15.419Z,1013.39
2019-04-30T10:43:15.445Z,1013.4
2019-04-30T10:44:15.469Z,1013.33
2019-04-30T10:45:15.495Z,1013.31
2019-04-30T10:46:15.521Z,1013.27
2019-04-30T10:47:15.552Z,1013.32
2019-04-30T10:48:15.572Z,1013.25
2019-04-30T10:49:15.598Z,1013.33
2019-04-30T10:50:15.623Z,1013.36
2019-04-30T10:51:15.652Z,1013.27
2019-04-30T10:52:15.673Z,1013.3
2019-04-30T10:53:15.698Z,1013.37
2019-04-30T10:54:23.908Z,1013.33
2019-04-30T10:55:15.749Z,1013.27
2019-04-30T10:56:15.774Z,1013.34
2019-04-30T10:57:15.801Z,1013.29
2019-04-30T10:58:15.825Z,1013.25
2019-04-30T10:59:15.849Z,1013.22
2019-04-30T11:00:15.875Z,1013.22
2019-04-30T11:01:15.900Z,1013.23
2019-04-30T11:02:15.926Z,1013.17
2019-04-30T11:03:19.670Z,1013.17
2019-04-30T11:04:15.973Z,1013.15
2019-04-30T11:05:16.001Z,1013.08
2019-04-30T11:06:16.024Z,1013.09
2019-04-30T11:08:16.072Z,1013.09
2019-04-30T11:09:16.097Z,1013.1
2019-04-30T11:10:16.121Z,1013.08
2019-04-30T11:11:16.145Z,1013.1
2019-04-30T11:12:16.170Z,1013.16
2019-04-30T11:13:16.196Z,1013.13
2019-04-30T11:14:16.218Z,1013.17
2019-04-30T11:15:16.244Z,1013.2
2019-04-30T11:16:16.268Z,1013.15
2019-04-30T11:17:16.465Z,1013.12
2019-04-30T11:18:16.508Z,1013.1
2019-04-30T11:19:16.525Z,1013.13
2019-04-30T11:20:16.598Z,1013.14
2019-04-30T11:21:16.565Z,1013.14
2019-04-30T11:22:16.546Z,1013.13
2019-04-30T11:24:16.641Z,1013.13
2019-04-30T11:25:16.681Z,1013.14
2019-04-30T11:26:16.994Z,1013.15
2019-04-30T11:27:17.117Z,1013.13
2019-04-30T11:28:16.984Z,1013.19
2019-04-30T11:29:16.729Z,1013.17
2019-04-30T11:30:21.137Z,1013.15
2019-04-30T11:31:16.846Z,1013.13
2019-04-30T11:32:16.900Z,1013.13
2019-04-30T11:33:16.802Z,1013.13
2019-04-30T11:34:16.705Z,1013.11
2019-04-30T11:35:18.358Z,1013.08
2019-04-30T11:36:16.753Z,1013.07
2019-04-30T11:37:16.778Z,1013.1
2019-04-30T11:38:16.802Z,1013.08
2019-04-30T11:40:16.852Z,1013.02
2019-04-30T11:41:29.404Z,1013.05
2019-04-30T11:42:16.899Z,1013.01
2019-04-30T11:43:18.183Z,1013.01
2019-04-30T11:44:28.345Z,1012.97
2019-04-30T11:45:16.971Z,1012.98
2019-04-30T11:46:18.664Z,1012.97
2019-04-30T11:47:17.019Z,1012.93
2019-04-30T11:48:18.964Z,1012.94
2019-04-30T11:49:17.068Z,1012.98
2019-04-30T11:50:17.090Z,1012.98
2019-04-30T11:51:19.206Z,1012.95
2019-04-30T11:52:17.139Z,1012.9
2019-04-30T11:53:25.154Z,1012.92
2019-04-30T11:54:18.697Z,1012.96
2019-04-30T11:56:17.237Z,1012.88
2019-04-30T11:57:18.678Z,1012.9
2019-04-30T11:58:21.511Z,1012.87
2019-04-30T11:59:17.307Z,1012.93
2019-04-30T12:00:18.677Z,1012.88
2019-04-30T12:01:19.310Z,1012.86
2019-04-30T12:02:19.043Z,1012.86
2019-04-30T12:03:19.112Z,1012.79
2019-04-30T12:04:19.041Z,1012.83
2019-04-30T12:05:20.393Z,1012.83
2019-04-30T12:06:18.483Z,1012.84
2019-04-30T12:07:17.600Z,1012.88
2019-04-30T12:08:19.271Z,1012.86
2019-04-30T12:09:18.485Z,1012.89
2019-04-30T12:11:17.798Z,1012.97
2019-04-30T12:12:18.913Z,1012.88
2019-04-30T12:13:17.643Z,1012.8
2019-04-30T12:14:18.176Z,1012.78
2019-04-30T12:15:19.211Z,1012.74
2019-04-30T12:16:18.606Z,1012.7
2019-04-30T12:17:17.739Z,1012.74
2019-04-30T12:18:17.763Z,1012.71
2019-04-30T12:19:18.893Z,1012.66
2019-04-30T12:20:19.469Z,1012.78
2019-04-30T12:21:17.834Z,1012.69
2019-04-30T12:22:19.840Z,1012.68
2019-04-30T12:23:18.980Z,1012.71
2019-04-30T12:24:17.905Z,1012.66
2019-04-30T12:25:18.673Z,1012.67
2019-04-30T12:26:19.040Z,1012.62
2019-04-30T12:27:18.676Z,1012.62
2019-04-30T12:28:19.512Z,1012.62
2019-04-30T12:29:19.074Z,1012.63
2019-04-30T12:30:20.359Z,1012.59
2019-04-30T12:31:18.686Z,1012.65
2019-04-30T12:32:19.145Z,1012.63
2019-04-30T12:33:19.113Z,1012.58
2019-04-30T12:34:18.146Z,1012.53
2019-04-30T12:35:18.167Z,1012.53
2019-04-30T12:36:18.882Z,1012.56
2019-04-30T12:37:19.054Z,1012.49
2019-04-30T12:38:19.117Z,1012.54
2019-04-30T12:39:18.261Z,1012.54
2019-04-30T12:40:26.518Z,1012.57
2019-04-30T12:41:18.310Z,1012.58
2019-04-30T12:43:18.357Z,1012.51
2019-04-30T12:44:18.381Z,1012.52
2019-04-30T12:45:19.426Z,1012.53
2019-04-30T12:46:18.932Z,1012.57
2019-04-30T12:47:21.372Z,1012.52
2019-04-30T12:48:20.248Z,1012.54
2019-04-30T12:49:19.035Z,1012.5
2019-04-30T12:50:19.497Z,1012.55
2019-04-30T12:51:18.547Z,1012.51
2019-04-30T12:52:19.575Z,1012.47